Time;durP1;ratioP1;P1;durP2;ratioP2;P2;SDS_P1;SDS_P2;PMS_P1;PMS_P2;Temp;Humidity;BMP_temperature;BMP_pressure;BME280_temperature;BME280_humidity;BME280_pressure;Samples;Min_cycle;Max_cycle;Signal;HPM_P1;HPM_P2
2021/03/14 00:00:56;;;;;;;119.28;70.50;;;8.30;98.10;;;;;;4999572;28;20464;-66
2021/03/14 00:03:26;;;;;;;108.60;66.80;;;8.20;97.80;;;;;;4999650;28;20003;-68
2021/03/14 00:05:52;;;;;;;116.50;71.80;;;8.30;98.10;;;;;;5000256;28;20030;-67
2021/03/14 00:08:20;;;;;;;120.93;71.57;;;8.30;97.70;;;;;;4999462;28;20027;-77
2021/03/14 00:10:49;;;;;;;118.90;71.90;;;8.20;97.70;;;;;;4997971;28;20093;-68
2021/03/14 00:13:31;;;;;;;120.28;71.80;;;8.20;98.00;;;;;;4999438;28;20022;-66
2021/03/14 00:15:58;;;;;;;127.10;74.05;;;8.10;97.70;;;;;;4997249;28;20038;-66
2021/03/14 00:18:39;;;;;;;123.20;72.38;;;8.10;97.80;;;;;;4999546;28;20385;-73
2021/03/14 00:21:06;;;;;;;112.43;65.78;;;8.00;97.70;;;;;;4999189;28;20025;-67
2021/03/14 00:23:32;;;;;;;109.95;66.20;;;8.00;97.90;;;;;;4999308;28;20045;-69
2021/03/14 00:25:58;;;;;;;110.57;68.90;;;7.90;98.30;;;;;;4999378;28;20018;-76
2021/03/14 00:28:25;;;;;;;107.05;67.55;;;8.00;98.50;;;;;;4999245;28;20034;-69
2021/03/14 00:30:52;;;;;;;160.13;92.57;;;7.90;98.90;;;;;;5000163;28;20026;-77
2021/03/14 00:33:18;;;;;;;183.82;102.60;;;8.00;98.60;;;;;;4999371;28;20387;-68
2021/03/14 00:35:45;;;;;;;158.82;89.70;;;8.10;98.50;;;;;;4997418;28;20396;-69
2021/03/14 00:38:11;;;;;;;336.98;182.05;;;8.10;97.80;;;;;;5001144;28;20022;-74
2021/03/14 00:40:37;;;;;;;251.50;137.05;;;8.10;97.70;;;;;;5001679;28;20346;-68
2021/03/14 00:43:06;;;;;;;134.00;78.53;;;8.20;97.70;;;;;;4998647;28;20045;-67
2021/03/14 00:45:37;;;;;;;106.63;62.33;;;8.20;97.10;;;;;;4999336;28;20050;-70
2021/03/14 00:48:05;;;;;;;139.02;77.28;;;8.30;96.50;;;;;;4998420;28;20058;-74
2021/03/14 00:50:42;;;;;;;153.65;85.28;;;8.30;96.30;;;;;;4996659;28;20050;-68
2021/03/14 00:53:08;;;;;;;116.30;69.22;;;8.30;96.30;;;;;;4998677;28;20515;-77
2021/03/14 00:55:34;;;;;;;104.10;60.85;;;8.30;96.40;;;;;;4996426;28;20034;-76
2021/03/14 00:58:00;;;;;;;113.22;66.30;;;8.40;96.10;;;;;;4997288;28;20023;-71
2021/03/14 01:00:26;;;;;;;126.50;73.07;;;8.30;96.00;;;;;;4996228;28;20026;-67
2021/03/14 01:02:52;;;;;;;131.75;76.65;;;8.40;95.70;;;;;;4999269;28;20023;-67
2021/03/14 01:05:18;;;;;;;127.40;69.93;;;8.40;95.70;;;;;;4998701;28;20054;-76
2021/03/14 01:07:44;;;;;;;78.70;46.85;;;8.40;95.80;;;;;;4998897;28;20030;-68
2021/03/14 01:10:12;;;;;;;76.00;43.42;;;8.40;94.90;;;;;;4999268;28;20022;-77
2021/03/14 01:12:41;;;;;;;71.65;40.85;;;8.40;94.60;;;;;;4998323;28;20049;-72
2021/03/14 01:15:10;;;;;;;70.03;43.10;;;8.40;94.40;;;;;;4996897;28;20034;-76
2021/03/14 01:17:37;;;;;;;72.65;43.88;;;8.50;94.50;;;;;;4996993;28;20025;-77
2021/03/14 01:20:06;;;;;;;65.88;40.42;;;8.50;94.30;;;;;;4997439;28;20078;-67
2021/03/14 01:22:32;;;;;;;62.67;39.15;;;8.40;94.40;;;;;;4996186;28;20472;-68
2021/03/14 01:24:58;;;;;;;55.03;33.90;;;8.40;94.20;;;;;;4997142;28;20109;-67
2021/03/14 01:27:24;;;;;;;50.13;30.90;;;8.40;94.10;;;;;;4996098;28;20503;-69
2021/03/14 01:29:50;;;;;;;48.13;31.33;;;8.30;94.00;;;;;;4998773;28;20473;-67
2021/03/14 01:32:17;;;;;;;46.20;26.88;;;8.40;94.60;;;;;;4996331;28;20057;-75
2021/03/14 01:34:43;;;;;;;40.75;24.90;;;8.40;94.00;;;;;;4996410;28;20054;-68
2021/03/14 01:37:09;;;;;;;42.35;27.52;;;8.30;93.50;;;;;;4997561;28;20030;-67
2021/03/14 01:39:35;;;;;;;35.42;21.67;;;8.30;93.90;;;;;;4996170;28;20030;-67
2021/03/14 01:42:00;;;;;;;39.55;22.95;;;8.30;93.70;;;;;;4996224;28;20029;-76
2021/03/14 01:44:26;;;;;;;40.35;23.15;;;8.30;93.60;;;;;;4996300;28;20014;-69
2021/03/14 01:46:52;;;;;;;33.33;19.50;;;8.30;94.30;;;;;;4995884;28;20395;-68
2021/03/14 01:49:18;;;;;;;25.42;14.57;;;8.30;93.90;;;;;;4995906;28;20030;-76
2021/03/14 01:51:44;;;;;;;30.77;17.38;;;8.30;93.80;;;;;;4996473;28;20424;-69
2021/03/14 01:54:11;;;;;;;27.98;14.75;;;8.30;93.80;;;;;;4995711;28;20033;-75
2021/03/14 01:56:37;;;;;;;51.63;26.30;;;8.40;93.40;;;;;;4996223;28;20375;-67
2021/03/14 01:59:03;;;;;;;25.95;13.95;;;8.40;94.00;;;;;;4994939;28;20050;-77
2021/03/14 02:01:29;;;;;;;19.17;10.38;;;8.40;93.30;;;;;;4995594;28;20034;-68
2021/03/14 02:03:55;;;;;;;13.35;8.18;;;8.40;93.60;;;;;;4995645;28;20027;-77
2021/03/14 02:06:21;;;;;;;16.27;9.95;;;8.40;93.60;;;;;;4995077;28;20029;-69
2021/03/14 02:08:46;;;;;;;26.60;14.57;;;8.30;93.80;;;;;;4996598;28;20080;-69
2021/03/14 02:11:12;;;;;;;16.13;9.38;;;8.30;93.80;;;;;;4995907;28;20022;-67
2021/03/14 02:13:44;;;;;;;13.00;7.57;;;8.30;93.50;;;;;;4996040;28;20061;-75
2021/03/14 02:16:18;;;;;;;14.68;7.53;;;8.40;93.50;;;;;;4995847;28;20034;-70
2021/03/14 02:18:49;;;;;;;19.05;10.35;;;8.40;93.20;;;;;;4994515;28;20037;-69
2021/03/14 02:21:15;;;;;;;24.17;12.98;;;8.40;93.30;;;;;;4994006;28;20030;-70
2021/03/14 02:23:52;;;;;;;19.42;13.82;;;8.40;93.30;;;;;;4995341;28;20018;-69
2021/03/14 02:26:22;;;;;;;14.27;7.47;;;8.30;93.50;;;;;;4997745;28;20032;-70
2021/03/14 02:28:49;;;;;;;12.10;7.80;;;8.30;93.30;;;;;;4996542;28;20030;-76
2021/03/14 02:31:18;;;;;;;13.35;7.43;;;8.30;93.40;;;;;;4993776;28;20022;-67
2021/03/14 02:33:48;;;;;;;11.55;6.22;;;8.40;93.40;;;;;;4994889;28;20065;-67
2021/03/14 02:36:14;;;;;;;13.65;7.30;;;8.30;93.40;;;;;;4995062;28;20054;-67
2021/03/14 02:38:42;;;;;;;13.23;7.35;;;8.30;93.50;;;;;;4995020;28;20046;-68
2021/03/14 02:41:09;;;;;;;12.15;6.70;;;8.30;93.60;;;;;;4995304;28;20021;-67
2021/03/14 02:43:36;;;;;;;12.98;6.72;;;8.30;93.60;;;;;;4995582;28;20546;-77
2021/03/14 02:46:03;;;;;;;12.95;6.90;;;8.30;93.80;;;;;;4996402;28;20420;-69
2021/03/14 02:48:29;;;;;;;13.80;6.45;;;8.30;93.70;;;;;;4995385;28;20014;-77
2021/03/14 02:50:58;;;;;;;11.80;5.90;;;8.30;93.80;;;;;;4996054;28;20134;-77
2021/03/14 02:53:24;;;;;;;10.82;4.93;;;8.30;93.40;;;;;;4995095;28;20380;-70
2021/03/14 02:55:53;;;;;;;8.63;4.93;;;8.20;93.50;;;;;;4995388;28;20461;-77
2021/03/14 02:58:21;;;;;;;9.13;4.90;;;8.20;93.50;;;;;;4996859;28;20018;-77
2021/03/14 03:00:48;;;;;;;8.73;5.22;;;8.20;93.40;;;;;;4997452;28;20026;-66
2021/03/14 03:03:14;;;;;;;8.48;5.30;;;8.30;93.30;;;;;;4999304;28;20392;-66
2021/03/14 03:05:41;;;;;;;10.15;5.20;;;8.30;93.40;;;;;;4999946;28;20019;-76
2021/03/14 03:08:07;;;;;;;9.52;5.28;;;8.40;93.70;;;;;;4999361;28;20022;-68
2021/03/14 03:10:41;;;;;;;9.00;4.20;;;8.40;93.60;;;;;;4999420;28;20026;-77
2021/03/14 03:13:08;;;;;;;7.95;4.03;;;8.40;93.20;;;;;;5000511;28;20346;-69
2021/03/14 03:15:35;;;;;;;5.80;3.17;;;8.50;93.70;;;;;;4999634;28;20053;-77
2021/03/14 03:18:02;;;;;;;8.48;3.55;;;8.50;93.30;;;;;;4999914;28;20086;-68
2021/03/14 03:20:28;;;;;;;8.10;3.50;;;8.60;93.30;;;;;;4999708;28;20375;-77
2021/03/14 03:22:55;;;;;;;9.63;3.90;;;8.60;93.60;;;;;;5001289;28;20034;-67
2021/03/14 03:25:22;;;;;;;8.13;3.70;;;8.60;93.30;;;;;;4999632;28;20102;-68
2021/03/14 03:27:49;;;;;;;9.77;4.80;;;8.60;93.50;;;;;;5000301;28;20018;-77
2021/03/14 03:30:17;;;;;;;11.73;5.20;;;8.70;92.90;;;;;;4999122;28;20021;-76
2021/03/14 03:32:43;;;;;;;9.85;5.20;;;8.70;92.80;;;;;;4998628;28;20480;-66
2021/03/14 03:35:11;;;;;;;11.20;5.80;;;8.60;92.70;;;;;;5000120;28;20113;-77
2021/03/14 03:37:37;;;;;;;13.55;6.03;;;8.70;92.50;;;;;;4999944;28;20028;-69
2021/03/14 03:40:06;;;;;;;10.70;6.13;;;8.70;92.50;;;;;;5000724;28;20492;-66
2021/03/14 03:42:35;;;;;;;11.07;5.70;;;8.80;92.50;;;;;;4996415;28;20077;-68
2021/03/14 03:45:05;;;;;;;13.77;6.45;;;8.70;93.40;;;;;;4995799;28;20065;-76
2021/03/14 03:47:31;;;;;;;13.48;7.03;;;8.60;93.50;;;;;;4998474;28;20530;-66
2021/03/14 03:49:57;;;;;;;15.13;7.60;;;8.60;93.60;;;;;;4997054;28;20504;-66
2021/03/14 03:52:24;;;;;;;13.07;7.63;;;8.60;93.60;;;;;;4998061;28;20022;-67
2021/03/14 03:54:52;;;;;;;13.05;7.75;;;8.60;93.20;;;;;;4997909;28;20380;-69
2021/03/14 03:57:20;;;;;;;14.93;7.97;;;8.70;93.40;;;;;;4997768;28;20018;-66
2021/03/14 03:59:48;;;;;;;13.07;7.05;;;8.70;93.60;;;;;;4998033;28;20033;-75
2021/03/14 04:02:15;;;;;;;15.38;7.75;;;8.70;92.80;;;;;;4996399;28;20031;-71
2021/03/14 04:04:43;;;;;;;13.75;7.20;;;8.70;92.80;;;;;;4998406;28;20023;-77
2021/03/14 04:07:11;;;;;;;12.20;7.13;;;8.70;93.00;;;;;;4998714;28;20496;-67
2021/03/14 04:09:38;;;;;;;12.98;8.13;;;8.70;93.40;;;;;;4998121;28;20046;-74
2021/03/14 04:12:06;;;;;;;16.90;8.30;;;8.70;92.80;;;;;;4997282;28;20023;-72
2021/03/14 04:14:33;;;;;;;13.65;7.78;;;8.70;92.80;;;;;;4997017;28;20022;-76
2021/03/14 04:17:01;;;;;;;18.33;9.43;;;8.70;92.90;;;;;;4998954;28;20066;-68
2021/03/14 04:19:29;;;;;;;42.83;21.73;;;8.70;93.20;;;;;;4999867;28;20407;-77
2021/03/14 04:21:57;;;;;;;12.48;7.60;;;8.70;93.10;;;;;;4997120;28;20476;-69
2021/03/14 04:24:24;;;;;;;11.57;7.03;;;8.70;92.80;;;;;;4997282;28;20018;-68
2021/03/14 04:26:51;;;;;;;14.32;8.00;;;8.70;92.80;;;;;;4997454;28;20046;-67
2021/03/14 04:29:19;;;;;;;17.60;10.68;;;8.60;93.00;;;;;;4997551;28;20030;-69
2021/03/14 04:31:47;;;;;;;22.48;15.18;;;8.70;93.10;;;;;;4998374;28;20080;-77
2021/03/14 04:34:16;;;;;;;20.58;11.20;;;8.70;93.10;;;;;;4998543;28;20030;-77
2021/03/14 04:36:44;;;;;;;17.73;10.38;;;8.60;93.20;;;;;;4999190;28;20019;-77
2021/03/14 04:39:10;;;;;;;15.02;7.97;;;8.60;93.10;;;;;;4999526;28;20026;-68
2021/03/14 04:41:38;;;;;;;12.88;7.85;;;8.60;93.30;;;;;;4999703;28;20113;-72
2021/03/14 04:44:06;;;;;;;11.82;7.88;;;8.50;93.40;;;;;;4996389;28;20121;-67
2021/03/14 04:46:32;;;;;;;14.82;9.05;;;8.50;93.60;;;;;;4997634;28;20026;-67
2021/03/14 04:48:59;;;;;;;23.15;12.95;;;8.60;93.30;;;;;;4995091;28;20093;-76
2021/03/14 04:51:27;;;;;;;14.68;8.65;;;8.60;93.30;;;;;;4995473;28;20053;-67
2021/03/14 04:53:57;;;;;;;14.20;8.15;;;8.50;93.40;;;;;;4997573;28;20026;-77
2021/03/14 04:56:26;;;;;;;13.38;7.95;;;8.50;93.40;;;;;;4998219;28;20383;-76
2021/03/14 04:58:55;;;;;;;10.23;6.07;;;8.50;93.60;;;;;;4996990;28;20034;-70
2021/03/14 05:01:22;;;;;;;11.48;5.95;;;8.50;93.90;;;;;;4996648;28;20029;-77
2021/03/14 05:03:55;;;;;;;8.00;5.88;;;8.30;94.00;;;;;;4996802;28;20018;-69
2021/03/14 05:06:22;;;;;;;11.65;6.20;;;8.40;94.10;;;;;;4999015;28;20026;-68
2021/03/14 05:08:49;;;;;;;13.07;7.13;;;8.40;94.00;;;;;;4998176;28;20026;-72
2021/03/14 05:11:20;;;;;;;8.43;5.18;;;8.40;93.90;;;;;;4997735;28;20034;-69
2021/03/14 05:13:47;;;;;;;9.20;5.75;;;8.40;93.80;;;;;;4998870;28;20015;-69
2021/03/14 05:16:14;;;;;;;12.60;6.40;;;8.40;93.80;;;;;;4998893;28;20029;-67
2021/03/14 05:18:42;;;;;;;10.50;6.38;;;8.40;93.90;;;;;;4995669;28;20022;-76
2021/03/14 05:21:09;;;;;;;11.40;5.57;;;8.50;94.00;;;;;;4995970;28;20026;-68
2021/03/14 05:23:36;;;;;;;6.57;4.35;;;8.40;94.00;;;;;;4998003;28;20077;-77
2021/03/14 05:26:05;;;;;;;7.63;4.53;;;8.50;93.80;;;;;;4996499;28;20052;-69
2021/03/14 05:28:31;;;;;;;8.38;4.55;;;8.60;93.70;;;;;;4997275;28;20018;-76
2021/03/14 05:30:58;;;;;;;8.23;4.95;;;8.60;93.90;;;;;;4998424;28;20026;-77
2021/03/14 05:33:23;;;;;;;8.70;5.05;;;8.60;93.80;;;;;;4995555;28;20511;-68
2021/03/14 05:35:49;;;;;;;9.35;5.47;;;8.50;93.80;;;;;;4995216;28;20036;-69
2021/03/14 05:38:15;;;;;;;9.43;5.55;;;8.50;94.00;;;;;;4995980;28;20027;-77
2021/03/14 05:40:42;;;;;;;11.07;6.40;;;8.50;94.30;;;;;;4997205;28;20424;-77
2021/03/14 05:43:08;;;;;;;13.48;7.00;;;8.50;94.10;;;;;;4998721;28;20070;-77
2021/03/14 05:45:34;;;;;;;12.05;6.88;;;8.50;94.20;;;;;;4996460;28;20054;-68
2021/03/14 05:48:00;;;;;;;12.30;6.82;;;8.60;94.30;;;;;;4997127;28;20077;-76
2021/03/14 05:50:29;;;;;;;11.25;7.03;;;8.60;94.10;;;;;;4996274;28;20143;-66
2021/03/14 05:52:58;;;;;;;11.63;7.40;;;8.70;94.20;;;;;;4996226;28;20026;-68
2021/03/14 05:55:26;;;;;;;10.13;7.10;;;8.80;93.90;;;;;;4995729;28;20057;-69
2021/03/14 05:57:53;;;;;;;40.45;29.05;;;8.80;93.90;;;;;;4996832;28;20028;-67
2021/03/14 06:00:28;;;;;;;13.63;8.77;;;8.80;93.90;;;;;;4995717;28;20034;-71
2021/03/14 06:02:57;;;;;;;17.35;13.52;;;8.80;94.00;;;;;;4994089;28;20538;-76
2021/03/14 06:05:24;;;;;;;12.30;9.57;;;8.80;94.00;;;;;;4997272;28;20018;-76
2021/03/14 06:07:50;;;;;;;12.10;10.65;;;8.90;94.10;;;;;;4997652;28;20379;-71
2021/03/14 06:10:17;;;;;;;14.48;8.30;;;8.90;94.20;;;;;;4998529;28;20018;-68
2021/03/14 06:12:44;;;;;;;18.02;8.20;;;8.90;94.20;;;;;;4996108;28;20060;-69
2021/03/14 06:15:11;;;;;;;12.70;8.52;;;9.00;94.30;;;;;;4996298;28;20464;-68
2021/03/14 06:17:37;;;;;;;16.33;9.32;;;9.10;94.10;;;;;;4995859;28;20034;-77
2021/03/14 06:20:08;;;;;;;15.23;9.50;;;9.20;94.00;;;;;;4996076;28;20154;-73
2021/03/14 06:22:34;;;;;;;18.88;10.77;;;9.20;94.00;;;;;;4996519;28;20019;-70
2021/03/14 06:25:01;;;;;;;18.30;12.15;;;9.30;94.00;;;;;;4994974;28;20025;-69
2021/03/14 06:27:37;;;;;;;18.10;12.27;;;9.40;93.90;;;;;;4994794;28;20023;-67
2021/03/14 06:30:06;;;;;;;17.42;11.70;;;9.50;93.80;;;;;;4995683;28;20081;-69
2021/03/14 06:32:32;;;;;;;22.58;14.70;;;9.60;93.90;;;;;;4994501;28;20476;-77
2021/03/14 06:35:09;;;;;;;22.27;14.13;;;9.60;93.60;;;;;;4994733;28;20085;-75
2021/03/14 06:37:35;;;;;;;23.83;15.95;;;9.70;93.70;;;;;;4994945;28;20018;-76
2021/03/14 06:40:15;;;;;;;19.98;13.75;;;9.80;93.80;;;;;;4997030;28;20050;-77
2021/03/14 06:42:42;;;;;;;23.33;14.55;;;9.90;93.60;;;;;;4996080;28;20123;-76
2021/03/14 06:45:14;;;;;;;29.95;19.05;;;9.90;93.50;;;;;;4995326;28;20476;-77
2021/03/14 06:47:49;;;;;;;31.30;19.70;;;10.00;93.30;;;;;;4995927;28;20509;-68
2021/03/14 06:50:39;;;;;;;25.55;17.83;;;10.10;93.10;;;;;;4997661;28;20042;-67
2021/03/14 06:53:14;;;;;;;27.77;19.05;;;10.20;93.00;;;;;;4986851;28;20081;-67
2021/03/14 06:55:42;;;;;;;28.45;18.75;;;10.20;93.40;;;;;;4996361;28;20122;-77
2021/03/14 06:58:31;;;;;;;27.15;18.45;;;10.30;92.90;;;;;;4995059;28;20027;-66
2021/03/14 07:01:16;;;;;;;35.70;23.10;;;10.30;93.30;;;;;;4995123;28;20018;-75
2021/03/14 07:03:47;;;;;;;;;;;10.30;92.80;;;;;;4995093;28;20407;-68
2021/03/14 07:06:24;;;;;;;37.42;22.77;;;10.40;92.90;;;;;;4995690;28;19929;-66
2021/03/14 07:09:10;;;;;;;38.28;24.23;;;10.50;93.30;;;;;;4995869;28;20023;-76
2021/03/14 07:11:40;;;;;;;34.35;22.00;;;10.50;93.20;;;;;;4994317;28;20101;-68
2021/03/14 07:14:11;;;;;;;46.45;23.65;;;10.60;93.30;;;;;;4996469;28;20026;-69
2021/03/14 07:16:44;;;;;;;34.20;20.60;;;10.60;93.00;;;;;;4995025;28;20027;-67
2021/03/14 07:19:20;;;;;;;39.08;19.92;;;10.70;92.90;;;;;;4995834;28;20093;-77
2021/03/14 07:22:03;;;;;;;27.88;18.35;;;10.80;93.00;;;;;;4995329;28;20026;-74
2021/03/14 07:24:37;;;;;;;29.55;19.23;;;10.90;93.00;;;;;;4997236;28;20027;-76
2021/03/14 07:27:05;;;;;;;28.65;18.90;;;11.10;93.20;;;;;;4998000;28;20022;-67
2021/03/14 07:29:34;;;;;;;30.20;18.95;;;11.30;93.00;;;;;;4994570;28;20058;-66
2021/03/14 07:32:00;;;;;;;27.00;18.58;;;11.50;92.80;;;;;;4994320;28;20018;-70
2021/03/14 07:34:26;;;;;;;66.03;46.50;;;11.80;92.90;;;;;;4994744;28;20033;-68
2021/03/14 07:36:53;;;;;;;29.65;18.55;;;12.00;92.50;;;;;;4995761;28;20030;-70
2021/03/14 07:39:20;;;;;;;25.73;14.88;;;12.20;92.10;;;;;;4996421;28;20026;-78
2021/03/14 07:41:47;;;;;;;27.90;17.35;;;12.50;91.20;;;;;;4995256;28;20022;-66
2021/03/14 07:44:16;;;;;;;24.65;16.77;;;12.70;90.50;;;;;;4995524;28;20033;-76
2021/03/14 07:46:43;;;;;;;28.60;19.77;;;12.90;88.80;;;;;;4995039;28;20033;-66
2021/03/14 07:49:15;;;;;;;32.10;21.13;;;13.20;90.20;;;;;;4998001;28;20054;-77
2021/03/14 07:51:49;;;;;;;33.28;21.40;;;13.50;88.20;;;;;;5000056;28;20034;-69
2021/03/14 07:54:41;;;;;;;32.78;20.88;;;13.70;87.40;;;;;;5000173;28;20495;-66
2021/03/14 07:57:11;;;;;;;33.78;22.42;;;13.90;86.60;;;;;;5000445;28;20073;-67
2021/03/14 07:59:37;;;;;;;31.27;20.45;;;14.00;85.10;;;;;;4998011;28;20034;-66
2021/03/14 08:02:18;;;;;;;28.58;19.02;;;14.20;85.60;;;;;;4999843;28;20027;-67
2021/03/14 08:04:58;;;;;;;58.60;36.35;;;14.30;83.50;;;;;;4999357;28;20363;-67
2021/03/14 08:07:33;;;;;;;18.88;12.73;;;14.40;83.60;;;;;;5001204;28;20031;-69
2021/03/14 08:10:05;;;;;;;19.67;12.98;;;14.50;82.60;;;;;;4997956;28;20109;-64
2021/03/14 08:12:41;;;;;;;19.33;13.70;;;14.60;83.80;;;;;;4997941;28;20021;-66
2021/03/14 08:15:21;;;;;;;17.15;11.57;;;14.70;82.70;;;;;;4996201;28;20034;-76
2021/03/14 08:17:48;;;;;;;12.23;8.57;;;14.90;79.90;;;;;;5000888;28;20108;-80
2021/03/14 08:20:15;;;;;;;8.88;5.10;;;14.90;80.50;;;;;;4999699;28;20030;-67
2021/03/14 08:22:45;;;;;;;7.95;5.35;;;15.00;77.40;;;;;;5001212;28;20022;-78
2021/03/14 08:25:18;;;;;;;9.43;5.28;;;15.20;76.40;;;;;;5001489;28;20404;-74
2021/03/14 08:27:46;;;;;;;11.80;8.30;;;15.30;76.70;;;;;;4999578;28;20034;-67
2021/03/14 08:30:34;;;;;;;9.95;6.70;;;15.50;77.40;;;;;;4999365;28;20070;-69
2021/03/14 08:33:22;;;;;;;8.80;5.60;;;15.60;77.50;;;;;;4998707;28;20034;-67
2021/03/14 08:36:18;;;;;;;11.15;6.35;;;15.80;77.10;;;;;;4993106;28;20436;-70
2021/03/14 08:38:53;;;;;;;10.77;6.82;;;15.90;75.50;;;;;;4990745;28;20089;-68
2021/03/14 08:41:40;;;;;;;9.63;6.70;;;16.00;75.20;;;;;;4995254;28;20061;-66
2021/03/14 08:44:13;;;;;;;10.30;6.43;;;16.20;75.00;;;;;;4993612;28;20482;-77
2021/03/14 08:46:51;;;;;;;5.10;2.80;;;16.30;73.90;;;;;;4995094;28;20052;-66
2021/03/14 08:49:20;;;;;;;5.00;3.10;;;16.40;71.10;;;;;;4994579;28;20054;-75
2021/03/14 08:51:46;;;;;;;8.30;5.45;;;16.50;71.00;;;;;;4992924;28;20499;-68
2021/03/14 08:54:16;;;;;;;5.03;3.75;;;16.70;70.10;;;;;;4994665;28;20077;-67
2021/03/14 08:56:42;;;;;;;10.20;3.80;;;16.80;66.40;;;;;;4994244;28;20815;-66
2021/03/14 08:59:14;;;;;;;9.93;4.38;;;16.70;65.20;;;;;;4994036;28;20018;-69
2021/03/14 09:01:43;;;;;;;5.22;3.40;;;16.70;66.40;;;;;;4996103;28;20010;-77
2021/03/14 09:04:17;;;;;;;6.50;3.25;;;16.70;65.70;;;;;;4996757;28;20547;-66
2021/03/14 09:06:43;;;;;;;5.47;3.15;;;16.70;65.40;;;;;;4997349;28;20026;-66
2021/03/14 09:09:12;;;;;;;4.80;3.17;;;16.80;66.50;;;;;;5000245;28;20118;-68
2021/03/14 09:11:43;;;;;;;7.93;3.67;;;16.80;69.70;;;;;;4999691;28;20105;-68
2021/03/14 09:14:27;;;;;;;6.38;3.50;;;16.70;67.40;;;;;;4999043;28;20105;-75
2021/03/14 09:16:54;;;;;;;;;;;16.70;67.80;;;;;;4996305;28;20431;-66
2021/03/14 09:19:26;;;;;;;6.10;3.30;;;16.60;66.00;;;;;;4995833;28;20417;-67
2021/03/14 09:21:57;;;;;;;7.35;3.78;;;16.60;66.70;;;;;;4994105;28;20535;-66
2021/03/14 09:24:28;;;;;;;13.35;7.65;;;16.50;63.40;;;;;;4992469;28;20559;-66
2021/03/14 09:26:59;;;;;;;12.70;7.50;;;16.40;66.40;;;;;;4994169;28;20034;-66
2021/03/14 09:29:36;;;;;;;7.88;4.45;;;16.40;68.50;;;;;;4991254;28;20014;-66
2021/03/14 09:32:13;;;;;;;42.72;23.00;;;16.40;66.60;;;;;;4999114;28;20019;-74
2021/03/14 09:34:39;;;;;;;32.35;20.02;;;16.30;69.60;;;;;;4999570;28;20042;-76
2021/03/14 09:37:06;;;;;;;20.65;13.85;;;16.20;73.00;;;;;;4998960;28;20118;-67
2021/03/14 09:39:32;;;;;;;15.35;10.98;;;16.00;83.00;;;;;;5000940;28;20034;-77
2021/03/14 09:41:58;;;;;;;26.00;17.80;;;15.90;86.10;;;;;;5001664;28;20038;-65
2021/03/14 09:44:24;;;;;;;19.83;13.98;;;15.60;90.00;;;;;;4998388;28;20388;-65
2021/03/14 09:46:53;;;;;;;28.17;19.92;;;15.40;89.40;;;;;;4995571;28;20644;-65
2021/03/14 09:49:19;;;;;;;19.40;14.02;;;15.20;90.60;;;;;;4992727;28;20488;-64
2021/03/14 09:51:58;;;;;;;20.42;14.18;;;15.00;90.70;;;;;;4991553;28;20022;-65
2021/03/14 09:54:24;;;;;;;19.15;13.43;;;14.90;90.60;;;;;;4995676;28;20038;-65
2021/03/14 09:56:56;;;;;;;19.95;15.20;;;14.90;90.60;;;;;;5004797;28;20006;-65
2021/03/14 09:59:27;;;;;;;19.55;13.75;;;14.90;91.10;;;;;;5003971;28;20026;-76
2021/03/14 10:01:56;;;;;;;19.58;14.25;;;15.00;91.40;;;;;;5000418;28;20045;-77
2021/03/14 10:04:22;;;;;;;14.98;11.27;;;15.00;91.50;;;;;;4998240;28;20105;-77
2021/03/14 10:06:48;;;;;;;24.80;17.13;;;14.90;91.20;;;;;;4999213;28;20484;-73
2021/03/14 10:09:22;;;;;;;15.07;10.68;;;14.90;91.80;;;;;;4995258;28;20027;-77
2021/03/14 10:11:50;;;;;;;25.98;15.68;;;15.00;91.10;;;;;;4995195;28;20053;-77
2021/03/14 10:14:22;;;;;;;14.77;10.60;;;15.00;90.60;;;;;;4995377;28;20042;-74
2021/03/14 10:16:49;;;;;;;24.75;17.25;;;15.10;90.00;;;;;;4995962;28;20072;-77
2021/03/14 10:19:16;;;;;;;14.63;11.32;;;15.10;90.10;;;;;;4995063;28;20026;-65
2021/03/14 10:21:47;;;;;;;23.92;16.48;;;15.30;89.80;;;;;;4994903;28;20183;-77
2021/03/14 10:24:25;;;;;;;19.20;13.18;;;15.40;90.30;;;;;;4994681;28;20097;-66
2021/03/14 10:26:56;;;;;;;11.35;8.98;;;15.60;88.90;;;;;;4994696;28;20069;-77
2021/03/14 10:29:28;;;;;;;12.60;9.15;;;15.70;88.10;;;;;;4994725;28;20069;-77
2021/03/14 10:31:55;;;;;;;11.93;9.00;;;15.70;86.40;;;;;;4994581;28;20424;-77
2021/03/14 10:34:22;;;;;;;12.50;9.68;;;15.60;86.90;;;;;;4994787;28;20054;-77
2021/03/14 10:36:50;;;;;;;11.25;8.55;;;15.70;86.50;;;;;;4994594;28;20022;-77
2021/03/14 10:39:27;;;;;;;12.55;9.15;;;15.80;86.40;;;;;;4995019;28;20106;-77
2021/03/14 10:41:53;;;;;;;11.65;8.32;;;15.90;85.70;;;;;;4994500;28;20030;-77
2021/03/14 10:44:24;;;;;;;12.88;8.48;;;15.90;85.20;;;;;;4994613;28;20023;-77
2021/03/14 10:46:52;;;;;;;11.82;9.43;;;15.90;84.30;;;;;;4994553;28;20022;-77
2021/03/14 10:49:28;;;;;;;12.10;8.73;;;15.90;84.50;;;;;;4994056;28;20125;-77
2021/03/14 10:51:56;;;;;;;11.98;9.00;;;16.00;84.10;;;;;;4994493;28;20030;-77
2021/03/14 10:54:31;;;;;;;13.65;9.55;;;16.00;83.60;;;;;;4994443;28;20094;-77
2021/03/14 10:56:57;;;;;;;15.38;10.05;;;16.00;83.50;;;;;;4994222;28;20096;-77
2021/03/14 10:59:28;;;;;;;11.40;8.75;;;16.10;84.20;;;;;;4993034;28;20076;-77
2021/03/14 11:02:13;;;;;;;10.73;8.63;;;16.20;83.10;;;;;;4994271;28;20077;-77
2021/03/14 11:04:39;;;;;;;14.82;8.45;;;16.30;82.60;;;;;;4994367;28;20022;-77
2021/03/14 11:07:23;;;;;;;11.98;8.95;;;16.30;81.70;;;;;;4994314;28;20026;-77
2021/03/14 11:09:50;;;;;;;13.35;9.32;;;16.40;82.10;;;;;;4994209;28;20042;-77
2021/03/14 11:12:36;;;;;;;14.93;10.65;;;16.40;81.40;;;;;;4994125;28;20045;-77
2021/03/14 11:15:04;;;;;;;11.63;8.52;;;16.50;80.80;;;;;;4993968;28;20058;-77
2021/03/14 11:17:33;;;;;;;11.18;7.85;;;16.60;79.10;;;;;;4994071;28;20117;-77
2021/03/14 11:19:59;;;;;;;10.25;7.47;;;16.70;79.80;;;;;;4994234;28;20364;-77
2021/03/14 11:22:25;;;;;;;9.85;7.22;;;16.90;78.90;;;;;;4997274;28;20033;-67
2021/03/14 11:24:51;;;;;;;10.40;7.47;;;16.90;78.10;;;;;;4997711;28;20097;-77
2021/03/14 11:27:18;;;;;;;8.75;6.78;;;17.00;77.60;;;;;;4997762;28;20027;-77
2021/03/14 11:29:44;;;;;;;11.02;7.60;;;17.20;76.30;;;;;;4997835;28;20034;-77
2021/03/14 11:32:13;;;;;;;9.35;6.38;;;17.20;76.30;;;;;;4998228;28;20057;-77
2021/03/14 11:34:43;;;;;;;10.23;6.93;;;17.20;77.20;;;;;;4997689;28;20023;-76
2021/03/14 11:37:10;;;;;;;7.65;6.15;;;17.40;76.00;;;;;;4997852;28;20022;-73
2021/03/14 11:39:37;;;;;;;9.13;6.25;;;17.60;73.60;;;;;;4998081;28;20065;-76
2021/03/14 11:42:04;;;;;;;8.20;5.55;;;17.60;72.40;;;;;;4997605;28;20026;-77
2021/03/14 11:44:30;;;;;;;8.57;6.03;;;17.50;70.90;;;;;;4997861;28;20022;-77
2021/03/14 11:46:56;;;;;;;9.00;6.80;;;17.40;72.90;;;;;;4997476;28;20068;-70
2021/03/14 11:49:24;;;;;;;10.32;7.00;;;17.30;75.80;;;;;;4997515;28;20054;-77
2021/03/14 11:51:50;;;;;;;11.60;6.93;;;17.20;74.30;;;;;;4998070;28;20033;-72
2021/03/14 11:54:17;;;;;;;9.27;6.70;;;17.10;72.40;;;;;;4997439;28;20051;-71
2021/03/14 11:56:47;;;;;;;8.40;6.00;;;16.90;74.30;;;;;;4997362;28;20023;-77
2021/03/14 11:59:14;;;;;;;8.30;5.90;;;16.80;74.90;;;;;;4997158;28;20018;-77
2021/03/14 12:01:40;;;;;;;9.75;6.25;;;16.70;74.70;;;;;;4997829;28;20019;-77
2021/03/14 12:04:06;;;;;;;9.48;6.40;;;16.60;76.30;;;;;;4997264;28;20027;-71
2021/03/14 12:06:33;;;;;;;8.80;5.55;;;16.60;75.20;;;;;;4997138;28;20026;-77
2021/03/14 12:08:59;;;;;;;7.90;5.63;;;16.50;74.70;;;;;;4997210;28;20077;-77
2021/03/14 12:11:26;;;;;;;8.75;5.65;;;16.40;75.10;;;;;;4997157;28;20480;-66
2021/03/14 12:13:52;;;;;;;9.27;5.20;;;16.30;75.30;;;;;;4997072;28;20050;-77
2021/03/14 12:16:18;;;;;;;8.95;6.00;;;16.20;77.30;;;;;;4996944;28;20085;-77
2021/03/14 12:18:44;;;;;;;12.48;8.27;;;16.00;78.30;;;;;;4997354;28;20105;-77
2021/03/14 12:21:10;;;;;;;11.32;6.65;;;16.00;79.00;;;;;;4997045;28;20046;-73
2021/03/14 12:23:36;;;;;;;7.95;4.70;;;15.80;78.30;;;;;;4996903;28;20520;-73
2021/03/14 12:26:04;;;;;;;10.43;5.03;;;15.70;77.40;;;;;;4997041;28;20449;-77
2021/03/14 12:28:31;;;;;;;7.63;4.80;;;15.60;80.00;;;;;;4997670;28;20101;-77
2021/03/14 12:30:57;;;;;;;7.07;4.90;;;15.50;80.40;;;;;;4997056;28;20093;-77
2021/03/14 12:33:23;;;;;;;6.95;4.50;;;15.50;81.00;;;;;;4996004;28;20030;-77
2021/03/14 12:35:50;;;;;;;10.27;7.68;;;15.50;78.40;;;;;;4995527;28;20107;-76
2021/03/14 12:38:17;;;;;;;18.67;15.23;;;15.60;75.90;;;;;;4996292;28;20034;-66
2021/03/14 12:40:46;;;;;;;14.20;9.70;;;15.60;73.70;;;;;;4996536;28;20484;-75
2021/03/14 12:43:20;;;;;;;8.98;6.18;;;15.60;78.00;;;;;;4996357;28;20476;-77
2021/03/14 12:45:49;;;;;;;135.80;89.25;;;15.60;76.20;;;;;;4996650;28;20030;-76
2021/03/14 12:48:16;;;;;;;67.97;47.92;;;15.50;76.20;;;;;;4996547;28;20534;-65
2021/03/14 12:50:42;;;;;;;127.07;112.32;;;15.50;76.00;;;;;;4996251;28;20042;-76